Time;durP1;ratioP1;P1;durP2;ratioP2;P2;SDS_P1;SDS_P2;PMS_P1;PMS_P2;Temp;Humidity;BMP_temperature;BMP_pressure;BME280_temperature;BME280_humidity;BME280_pressure;Samples;Min_cycle;Max_cycle;Signal;HPM_P1;HPM_P2
2022/11/07 00:01:13;;;;;;;0.10;0.10;;;;;;;0.11;83.85;100505.63;6235685;23;20023;-65
2022/11/07 00:03:39;;;;;;;0.00;0.00;;;;;;;0.12;83.85;100496.53;6233033;23;20024;-65
2022/11/07 00:06:06;;;;;;;0.10;0.10;;;;;;;0.13;84.06;100497.38;6246133;23;20027;-65
2022/11/07 00:08:32;;;;;;;0.10;0.10;;;;;;;0.17;84.20;100504.06;6238089;23;20051;-66
2022/11/07 00:10:58;;;;;;;0.10;0.10;;;;;;;0.20;84.47;100503.66;6234650;23;20019;-65
2022/11/07 00:13:26;;;;;;;0.10;0.10;;;;;;;0.17;84.25;100489.78;6243904;23;20020;-65
2022/11/07 00:15:53;;;;;;;0.00;0.00;;;;;;;0.25;84.29;100511.19;6206915;23;20043;-65
2022/11/07 00:18:19;;;;;;;0.10;0.10;;;;;;;0.27;84.26;100509.97;6236811;23;20020;-65
2022/11/07 00:20:45;;;;;;;0.08;0.08;;;;;;;0.27;84.05;100501.91;6221366;23;20070;-65
2022/11/07 00:23:11;;;;;;;0.10;0.10;;;;;;;0.27;84.10;100507.28;6207854;23;20368;-64
2022/11/07 00:25:37;;;;;;;0.10;0.10;;;;;;;0.28;84.02;100500.88;6235935;23;20020;-65
2022/11/07 00:28:03;;;;;;;0.10;0.10;;;;;;;0.30;83.84;100497.16;6243982;23;20024;-64
2022/11/07 00:30:31;;;;;;;0.10;0.10;;;;;;;0.28;83.98;100500.88;6209087;23;20027;-65
2022/11/07 00:32:57;;;;;;;0.10;0.10;;;;;;;0.33;84.16;100489.56;6235781;23;20056;-65
2022/11/07 00:35:23;;;;;;;0.25;0.13;;;;;;;0.36;84.17;100508.00;6245965;23;20030;-65
2022/11/07 00:37:48;;;;;;;0.10;0.10;;;;;;;0.39;83.88;100502.22;6237055;23;20020;-65
2022/11/07 00:40:14;;;;;;;0.10;0.10;;;;;;;0.42;83.84;100503.72;6245378;23;20055;-66
2022/11/07 00:42:40;;;;;;;0.10;0.10;;;;;;;0.44;83.67;100498.97;6209170;23;20028;-65
2022/11/07 00:45:07;;;;;;;0.10;0.10;;;;;;;0.45;83.70;100492.56;6205816;23;20031;-65
2022/11/07 00:47:35;;;;;;;0.10;0.10;;;;;;;0.44;83.85;100488.22;6234355;23;20031;-65
2022/11/07 00:50:01;;;;;;;0.10;0.10;;;;;;;0.40;83.49;100493.13;6242836;23;20054;-65
2022/11/07 00:52:26;;;;;;;0.10;0.10;;;;;;;0.37;84.05;100490.84;6241738;23;20016;-65
2022/11/07 00:54:52;;;;;;;0.10;0.10;;;;;;;0.26;84.30;100470.66;6233788;23;20024;-64
2022/11/07 00:57:18;;;;;;;0.10;0.10;;;;;;;0.39;84.22;100490.63;6235434;23;20035;-65
2022/11/07 00:59:44;;;;;;;0.10;0.10;;;;;;;0.41;84.21;100480.53;6233825;23;20055;-65
2022/11/07 01:02:10;;;;;;;0.10;0.10;;;;;;;0.43;84.38;100481.16;6246956;23;20414;-65
2022/11/07 01:07:22;;;;;;;0.10;0.10;;;;;;;0.44;84.42;100469.38;6237196;23;20394;-64
2022/11/07 01:09:48;;;;;;;0.10;0.10;;;;;;;0.45;84.52;100464.81;6233911;23;20028;-67
2022/11/07 01:12:15;;;;;;;0.10;0.10;;;;;;;0.41;84.38;100461.69;6237003;23;20031;-65
2022/11/07 01:14:41;;;;;;;0.10;0.10;;;;;;;0.40;84.55;100454.66;6232176;23;20295;-65
2022/11/07 01:17:07;;;;;;;0.10;0.10;;;;;;;0.38;84.73;100457.53;6244094;23;20050;-65
2022/11/07 01:19:33;;;;;;;0.10;0.10;;;;;;;0.37;84.75;100455.84;6233384;23;20413;-65
2022/11/07 01:22:01;;;;;;;0.10;0.10;;;;;;;0.40;84.72;100452.78;6233574;23;20149;-65
2022/11/07 01:24:27;;;;;;;0.10;0.10;;;;;;;0.41;84.67;100459.81;6229631;23;20070;-64
2022/11/07 01:26:52;;;;;;;0.10;0.10;;;;;;;0.40;84.51;100446.56;6233710;23;20020;-64
2022/11/07 01:29:19;;;;;;;0.10;0.10;;;;;;;0.35;84.57;100432.84;6241777;23;20032;-65
2022/11/07 01:31:45;;;;;;;0.10;0.10;;;;;;;0.33;84.79;100445.66;6243485;23;20020;-65
2022/11/07 01:34:11;;;;;;;0.10;0.10;;;;;;;0.32;84.85;100433.22;6237553;23;20058;-65
2022/11/07 01:36:37;;;;;;;0.10;0.10;;;;;;;0.31;85.25;100428.88;6236328;23;20016;-64
2022/11/07 01:39:05;;;;;;;0.10;0.10;;;;;;;0.40;85.08;100430.44;6244908;23;20020;-65
2022/11/07 01:41:33;;;;;;;0.10;0.10;;;;;;;0.41;85.05;100429.41;6209749;23;20062;-65
2022/11/07 01:44:01;;;;;;;0.10;0.10;;;;;;;0.41;84.98;100430.22;6205959;23;20020;-65
2022/11/07 01:46:30;;;;;;;0.00;0.00;;;;;;;0.42;85.04;100431.88;6219254;23;20046;-66
2022/11/07 01:49:03;;;;;;;0.10;0.10;;;;;;;0.45;85.14;100427.13;6245044;23;20027;-65
2022/11/07 01:51:33;;;;;;;0.25;0.10;;;;;;;0.45;85.22;100429.84;6237070;23;20020;-67
2022/11/07 01:54:00;;;;;;;0.10;0.10;;;;;;;0.47;85.44;100430.47;6235377;23;20411;-67
2022/11/07 01:56:29;;;;;;;0.10;0.10;;;;;;;0.51;85.21;100427.19;6209669;23;20016;-66
2022/11/07 01:58:57;;;;;;;0.10;0.10;;;;;;;0.49;85.40;100441.91;6233824;23;20044;-66
2022/11/07 02:01:23;;;;;;;0.10;0.10;;;;;;;0.48;85.61;100424.09;6247195;23;20420;-67
2022/11/07 02:03:51;;;;;;;0.00;0.00;;;;;;;0.50;85.82;100438.19;6208769;23;20020;-65
2022/11/07 02:06:23;;;;;;;0.10;0.10;;;;;;;0.43;85.88;100411.22;6206541;23;20039;-65
2022/11/07 02:08:51;;;;;;;0.10;0.10;;;;;;;0.34;86.18;100405.13;6219349;23;20023;-66
2022/11/07 02:11:19;;;;;;;0.10;0.10;;;;;;;0.44;86.17;100420.94;6246607;23;20027;-66
2022/11/07 02:13:46;;;;;;;0.10;0.10;;;;;;;0.45;86.26;100422.59;6244160;23;20027;-66
2022/11/07 02:16:12;;;;;;;0.10;0.10;;;;;;;0.44;86.43;100407.50;6246128;23;20016;-66
2022/11/07 02:18:40;;;;;;;0.10;0.10;;;;;;;0.51;86.31;100429.06;6236855;23;20136;-66
2022/11/07 02:21:14;;;;;;;0.10;0.10;;;;;;;0.45;86.39;100411.00;6244607;23;20027;-67
2022/11/07 02:23:52;;;;;;;0.10;0.10;;;;;;;0.49;86.74;100406.91;6217810;23;20107;-66
2022/11/07 02:26:20;;;;;;;0.10;0.10;;;;;;;0.49;86.58;100421.19;6243391;23;20027;-66
2022/11/07 02:28:48;;;;;;;0.10;0.10;;;;;;;0.47;86.59;100414.31;6232056;23;20055;-66
2022/11/07 02:31:13;;;;;;;0.10;0.10;;;;;;;0.50;86.86;100413.97;6234923;23;20044;-65
2022/11/07 02:33:40;;;;;;;0.10;0.10;;;;;;;0.54;86.79;100407.16;6244523;23;20518;-65
2022/11/07 02:36:13;;;;;;;0.10;0.10;;;;;;;0.54;86.48;100409.84;6160479;23;20016;-64
2022/11/07 02:38:39;;;;;;;0.03;0.03;;;;;;;0.55;86.78;100393.53;6207610;23;20028;-65
2022/11/07 02:41:09;;;;;;;0.10;0.10;;;;;;;0.48;86.78;100381.03;6236220;23;20553;-65
2022/11/07 02:43:39;;;;;;;0.10;0.10;;;;;;;0.65;86.68;100400.41;6209894;23;20020;-65
2022/11/07 02:46:10;;;;;;;0.10;0.10;;;;;;;0.61;86.42;100391.06;6239212;23;20103;-64
2022/11/07 02:48:41;;;;;;;0.10;0.10;;;;;;;0.63;86.62;100397.94;6234047;23;20036;-65
2022/11/07 02:51:07;;;;;;;0.10;0.10;;;;;;;0.63;86.82;100392.53;6220453;23;20024;-65
2022/11/07 02:53:33;;;;;;;0.10;0.10;;;;;;;0.63;86.81;100397.09;6209796;23;20020;-65
2022/11/07 02:55:59;;;;;;;0.10;0.10;;;;;;;0.58;86.72;100384.19;6235395;23;20352;-65
2022/11/07 02:58:25;;;;;;;0.10;0.10;;;;;;;0.65;86.95;100386.94;6237162;23;20024;-65
2022/11/07 03:00:52;;;;;;;0.10;0.10;;;;;;;0.66;86.86;100388.63;6219845;23;20020;-65
2022/11/07 03:03:18;;;;;;;0.10;0.10;;;;;;;0.67;86.91;100393.81;6245990;23;20020;-65
2022/11/07 03:05:44;;;;;;;0.10;0.10;;;;;;;0.65;86.33;100387.78;6233167;23;20286;-65
2022/11/07 03:08:10;;;;;;;0.10;0.10;;;;;;;0.69;86.85;100393.59;6244400;23;20046;-66
2022/11/07 03:10:36;;;;;;;0.10;0.10;;;;;;;0.70;86.64;100388.03;6236736;23;20017;-65
2022/11/07 03:13:03;;;;;;;0.10;0.10;;;;;;;0.69;86.50;100396.28;6209468;23;20102;-65
2022/11/07 03:15:29;;;;;;;0.10;0.10;;;;;;;0.63;86.57;100389.00;6219859;23;20194;-67
2022/11/07 03:17:58;;;;;;;0.10;0.10;;;;;;;0.63;86.56;100375.56;6244738;23;20432;-66
2022/11/07 03:20:24;;;;;;;0.10;0.10;;;;;;;0.66;86.63;100392.16;6238438;23;20355;-66
2022/11/07 03:22:50;;;;;;;0.10;0.10;;;;;;;0.67;86.56;100383.03;6236228;23;20386;-66
2022/11/07 03:25:16;;;;;;;0.10;0.10;;;;;;;0.66;86.41;100376.00;6208802;23;20020;-66
2022/11/07 03:27:46;;;;;;;0.10;0.10;;;;;;;0.68;86.37;100387.41;6235587;23;20104;-67
2022/11/07 03:30:12;;;;;;;0.10;0.10;;;;;;;0.71;86.36;100375.41;6246853;23;20049;-66
2022/11/07 03:32:38;;;;;;;0.10;0.10;;;;;;;0.72;86.43;100381.63;6218288;23;20024;-66
2022/11/07 03:35:07;;;;;;;0.00;0.00;;;;;;;0.75;86.35;100367.75;6237149;23;20379;-66
2022/11/07 03:37:32;;;;;;;0.10;0.10;;;;;;;0.82;86.13;100368.66;6243428;23;20024;-66
2022/11/07 03:39:58;;;;;;;0.10;0.10;;;;;;;0.81;85.83;100365.13;6205009;23;20074;-66
2022/11/07 03:42:24;;;;;;;0.10;0.10;;;;;;;0.84;85.97;100358.53;6245836;23;20488;-67
2022/11/07 03:44:50;;;;;;;0.10;0.10;;;;;;;0.89;85.86;100352.56;6206923;23;20066;-66
2022/11/07 03:47:16;;;;;;;0.10;0.10;;;;;;;0.89;85.48;100356.06;6235194;23;20402;-67
2022/11/07 03:49:42;;;;;;;0.10;0.10;;;;;;;0.87;85.26;100366.19;6233658;23;20069;-66
2022/11/07 03:52:10;;;;;;;0.10;0.10;;;;;;;0.88;85.31;100356.28;6232927;23;20027;-66
2022/11/07 03:54:36;;;;;;;0.10;0.10;;;;;;;0.86;85.27;100359.16;6234183;23;20415;-66
2022/11/07 03:57:01;;;;;;;0.10;0.10;;;;;;;0.82;85.44;100361.41;6245922;23;20340;-66
2022/11/07 03:59:27;;;;;;;0.10;0.10;;;;;;;0.79;85.17;100367.19;6209733;23;20392;-65
2022/11/07 04:01:54;;;;;;;0.10;0.10;;;;;;;0.78;85.40;100362.81;6218610;23;20464;-65
2022/11/07 04:04:20;;;;;;;0.22;0.20;;;;;;;0.78;85.54;100361.97;6235738;23;20024;-66
2022/11/07 04:06:46;;;;;;;0.10;0.10;;;;;;;0.80;85.69;100374.22;6247447;23;20069;-66
2022/11/07 04:09:13;;;;;;;0.10;0.10;;;;;;;0.88;85.34;100380.50;6209486;23;20054;-66
2022/11/07 04:17:18;;;;;;;0.10;0.10;;;;;;;0.83;85.41;100368.44;6241585;23;20020;-66
2022/11/07 04:19:44;;;;;;;0.10;0.10;;;;;;;0.77;85.35;100363.00;6246537;23;20019;-66
2022/11/07 04:22:10;;;;;;;0.10;0.10;;;;;;;0.78;85.45;100368.22;6247112;23;20028;-66
2022/11/07 04:24:37;;;;;;;0.10;0.10;;;;;;;0.81;85.62;100370.50;6185376;23;20020;-66
2022/11/07 04:29:47;;;;;;;0.10;0.10;;;;;;;0.88;85.15;100370.56;6247369;23;20019;-65
2022/11/07 04:32:13;;;;;;;0.10;0.10;;;;;;;0.84;85.37;100375.50;6200994;23;20046;-65
2022/11/07 04:34:39;;;;;;;0.10;0.10;;;;;;;0.84;85.49;100380.88;6198442;23;20232;-65
2022/11/07 04:37:05;;;;;;;0.10;0.10;;;;;;;0.80;85.61;100376.91;6229834;23;20046;-65
2022/11/07 04:39:31;;;;;;;0.10;0.10;;;;;;;0.80;85.80;100381.50;6240625;23;20043;-65
2022/11/07 04:41:59;;;;;;;0.10;0.10;;;;;;;0.81;85.89;100367.00;6232693;23;20020;-65
2022/11/07 04:44:25;;;;;;;0.10;0.10;;;;;;;0.86;85.97;100369.91;6208496;23;20387;-65
2022/11/07 04:46:51;;;;;;;0.10;0.10;;;;;;;0.84;85.51;100369.28;6246661;23;20050;-65
2022/11/07 04:49:17;;;;;;;0.10;0.10;;;;;;;0.85;86.03;100373.66;6246392;23;20019;-65
2022/11/07 04:51:43;;;;;;;0.10;0.10;;;;;;;0.82;85.96;100365.97;6230254;23;20024;-65
2022/11/07 04:54:11;;;;;;;0.30;0.20;;;;;;;0.85;85.60;100369.06;6240078;23;20528;-65
2022/11/07 04:56:37;;;;;;;0.10;0.10;;;;;;;0.85;85.73;100368.25;6241553;23;20056;-65
2022/11/07 04:59:04;;;;;;;0.10;0.10;;;;;;;0.90;85.74;100376.56;6240269;23;20027;-65
2022/11/07 05:01:30;;;;;;;0.10;0.10;;;;;;;0.91;85.79;100367.47;6244046;23;20028;-65
2022/11/07 05:03:56;;;;;;;0.10;0.10;;;;;;;0.94;85.65;100367.09;6230743;23;20020;-65
2022/11/07 05:06:22;;;;;;;0.10;0.10;;;;;;;0.99;85.51;100367.31;6203586;23;20371;-65
2022/11/07 05:08:48;;;;;;;0.10;0.10;;;;;;;0.98;85.52;100370.19;6236726;23;20024;-65
2022/11/07 05:11:14;;;;;;;0.00;0.00;;;;;;;1.01;85.38;100366.28;6234498;23;20407;-64
2022/11/07 05:13:41;;;;;;;0.10;0.10;;;;;;;1.04;85.55;100361.34;6208297;23;20020;-66
2022/11/07 05:16:13;;;;;;;0.10;0.10;;;;;;;1.05;85.49;100367.56;6184463;23;20039;-65
2022/11/07 05:18:39;;;;;;;0.00;0.00;;;;;;;1.10;85.08;100365.13;6236628;23;20024;-65
2022/11/07 05:21:05;;;;;;;0.10;0.10;;;;;;;1.08;84.94;100369.84;6236281;23;20473;-65
2022/11/07 05:23:31;;;;;;;0.10;0.10;;;;;;;1.06;85.00;100367.38;6247035;23;20047;-65
2022/11/07 05:25:57;;;;;;;0.10;0.10;;;;;;;1.06;84.76;100370.06;6245118;23;20020;-64
2022/11/07 05:28:24;;;;;;;0.10;0.10;;;;;;;1.09;84.89;100360.72;6233413;23;20062;-62
2022/11/07 05:30:50;;;;;;;0.10;0.10;;;;;;;1.13;84.90;100362.03;6237387;23;20035;-64
2022/11/07 05:33:19;;;;;;;0.10;0.10;;;;;;;1.11;84.88;100362.22;6207870;23;20020;-64
2022/11/07 05:35:45;;;;;;;0.10;0.10;;;;;;;1.09;84.72;100360.72;6183871;23;20514;-64
2022/11/07 05:38:11;;;;;;;0.10;0.10;;;;;;;1.13;84.88;100372.78;6246426;23;20077;-64
2022/11/07 05:40:39;;;;;;;0.10;0.10;;;;;;;1.17;84.89;100360.59;6214346;23;20030;-64
2022/11/07 05:43:07;;;;;;;0.10;0.10;;;;;;;1.25;84.68;100370.38;6185462;23;20460;-64
2022/11/07 05:45:36;;;;;;;0.10;0.10;;;;;;;1.24;84.46;100368.69;6244242;23;20085;-64
2022/11/07 05:48:04;;;;;;;0.10;0.10;;;;;;;1.28;84.60;100375.34;6249320;23;20055;-64
2022/11/07 05:50:32;;;;;;;0.10;0.10;;;;;;;1.22;84.39;100366.19;6238968;23;20020;-64
2022/11/07 05:52:59;;;;;;;0.10;0.10;;;;;;;1.29;84.31;100374.31;6246935;23;20024;-65
2022/11/07 05:55:25;;;;;;;0.10;0.10;;;;;;;1.33;84.36;100370.22;6247126;23;20547;-64
2022/11/07 05:57:51;;;;;;;0.10;0.10;;;;;;;1.41;84.18;100377.31;6239477;23;20020;-64
2022/11/07 06:00:18;;;;;;;0.10;0.10;;;;;;;1.31;83.87;100353.38;6249944;23;20024;-64
2022/11/07 06:02:44;;;;;;;0.15;0.10;;;;;;;1.36;83.98;100372.50;6237882;23;20085;-64
2022/11/07 06:05:10;;;;;;;0.10;0.10;;;;;;;1.34;84.06;100369.19;6238068;23;20031;-64
2022/11/07 06:07:39;;;;;;;0.10;0.10;;;;;;;1.33;84.01;100367.53;6247613;23;20537;-64
2022/11/07 06:10:07;;;;;;;0.10;0.10;;;;;;;1.35;84.07;100360.06;6239613;23;20024;-65
2022/11/07 06:12:33;;;;;;;0.00;0.00;;;;;;;1.37;84.06;100367.94;6208964;23;20131;-64
2022/11/07 06:14:59;;;;;;;0.10;0.10;;;;;;;1.39;84.09;100369.41;6210961;23;20028;-65
2022/11/07 06:17:25;;;;;;;0.10;0.10;;;;;;;1.40;83.86;100370.22;6222459;23;20098;-64
2022/11/07 06:19:51;;;;;;;0.10;0.10;;;;;;;1.35;83.75;100362.75;6250100;23;20047;-64
2022/11/07 06:22:17;;;;;;;0.10;0.10;;;;;;;1.45;83.67;100370.47;6236692;23;20024;-64
2022/11/07 06:24:44;;;;;;;0.10;0.10;;;;;;;1.43;83.52;100377.94;6212486;23;20035;-64
2022/11/07 06:27:11;;;;;;;0.10;0.10;;;;;;;1.43;83.96;100380.63;6213929;23;20023;-66
2022/11/07 06:29:36;;;;;;;0.20;0.20;;;;;;;1.48;83.58;100388.09;6213977;23;20031;-67
2022/11/07 06:32:03;;;;;;;0.10;0.10;;;;;;;1.51;83.58;100382.31;6210021;23;20019;-66
2022/11/07 06:34:29;;;;;;;0.10;0.10;;;;;;;1.53;83.31;100382.94;6216358;23;20411;-66
2022/11/07 06:36:55;;;;;;;0.10;0.10;;;;;;;1.46;83.50;100387.47;6248147;23;20020;-66
2022/11/07 06:39:21;;;;;;;0.20;0.10;;;;;;;1.48;83.09;100386.22;6248783;23;20031;-66
2022/11/07 06:41:49;;;;;;;0.30;0.10;;;;;;;1.44;83.26;100384.13;6237728;23;20027;-66
2022/11/07 06:44:15;;;;;;;0.10;0.10;;;;;;;1.45;83.56;100381.25;6236819;23;20411;-66
2022/11/07 06:46:46;;;;;;;0.10;0.10;;;;;;;1.49;83.37;100370.91;6246421;23;20088;-66
2022/11/07 06:49:13;;;;;;;0.10;0.10;;;;;;;1.48;83.35;100374.59;6215767;23;20918;-66
2022/11/07 06:51:39;;;;;;;0.10;0.10;;;;;;;1.50;83.27;100376.09;6235742;23;20024;-66
2022/11/07 06:54:05;;;;;;;0.10;0.10;;;;;;;1.52;83.27;100368.63;6247792;23;20105;-66
2022/11/07 06:56:30;;;;;;;0.10;0.10;;;;;;;1.52;83.13;100368.63;6248140;23;20443;-64
2022/11/07 06:58:58;;;;;;;0.55;0.10;;;;;;;1.59;83.07;100365.13;6159340;23;20369;-65
2022/11/07 07:01:24;;;;;;;0.10;0.10;;;;;;;1.56;82.99;100350.19;6243338;23;20511;-64
2022/11/07 07:03:50;;;;;;;0.10;0.10;;;;;;;1.68;82.78;100358.50;6183443;23;20028;-64
2022/11/07 07:06:16;;;;;;;0.10;0.10;;;;;;;1.77;82.58;100365.41;6212508;23;20402;-64
2022/11/07 07:08:43;;;;;;;0.10;0.10;;;;;;;1.82;82.41;100362.91;6210509;23;20028;-64
2022/11/07 07:11:11;;;;;;;0.10;0.10;;;;;;;1.90;82.30;100363.78;6186228;23;20020;-64
2022/11/07 07:13:38;;;;;;;0.10;0.10;;;;;;;1.87;82.30;100362.31;6245264;23;20031;-64
2022/11/07 07:16:06;;;;;;;0.10;0.10;;;;;;;1.87;82.22;100358.78;6234494;23;20051;-64
2022/11/07 07:18:32;;;;;;;0.13;0.13;;;;;;;1.90;82.27;100353.81;6242327;23;20355;-64
2022/11/07 07:21:04;;;;;;;0.10;0.10;;;;;;;1.91;81.79;100349.25;6180602;23;20031;-64
2022/11/07 07:23:30;;;;;;;0.10;0.10;;;;;;;1.94;82.13;100354.25;6246160;23;20055;-64
2022/11/07 07:25:56;;;;;;;0.10;0.10;;;;;;;1.86;81.80;100340.94;6236572;23;20460;-62
2022/11/07 07:28:22;;;;;;;0.10;0.10;;;;;;;1.96;81.66;100357.56;6220008;23;20095;-66
2022/11/07 07:30:48;;;;;;;0.20;0.20;;;;;;;1.94;81.43;100367.72;6243490;23;20131;-66
2022/11/07 07:33:15;;;;;;;0.10;0.10;;;;;;;1.95;81.70;100364.84;6242446;23;20098;-64
2022/11/07 07:35:41;;;;;;;0.10;0.10;;;;;;;1.94;81.61;100365.84;6243570;23;20027;-64
2022/11/07 07:38:07;;;;;;;0.10;0.10;;;;;;;1.96;81.65;100366.50;6233058;23;20020;-66
2022/11/07 07:40:34;;;;;;;0.10;0.10;;;;;;;2.00;81.55;100369.59;6244030;23;20024;-65
2022/11/07 07:43:00;;;;;;;0.10;0.10;;;;;;;2.02;81.31;100364.00;6235954;23;20039;-64
2022/11/07 07:45:26;;;;;;;0.45;0.17;;;;;;;2.05;81.50;100369.84;6217099;23;20024;-64
2022/11/07 07:47:52;;;;;;;0.10;0.10;;;;;;;2.09;81.15;100372.94;6244491;23;20103;-66
2022/11/07 07:50:20;;;;;;;0.10;0.10;;;;;;;2.05;81.08;100361.75;6244216;23;20044;-66
2022/11/07 07:52:46;;;;;;;0.10;0.10;;;;;;;2.09;81.09;100378.34;6206147;23;20047;-66
2022/11/07 07:55:12;;;;;;;0.35;0.20;;;;;;;2.08;81.21;100369.44;6235945;23;20376;-64
2022/11/07 07:57:39;;;;;;;0.10;0.10;;;;;;;2.00;81.06;100375.00;6242107;23;20020;-64
2022/11/07 08:00:07;;;;;;;0.17;0.10;;;;;;;2.02;81.44;100370.22;6204603;23;20020;-64
2022/11/07 08:02:38;;;;;;;0.20;0.20;;;;;;;1.99;81.24;100343.66;6236274;23;20020;-66
2022/11/07 08:05:05;;;;;;;0.10;0.10;;;;;;;2.11;80.96;100363.63;6244211;23;20183;-66
2022/11/07 08:07:32;;;;;;;0.10;0.10;;;;;;;2.15;81.07;100371.28;6235575;23;20027;-65
2022/11/07 08:09:58;;;;;;;0.10;0.10;;;;;;;2.15;81.16;100368.59;6246281;23;20028;-64
2022/11/07 08:12:24;;;;;;;0.10;0.10;;;;;;;2.22;81.06;100355.97;6180650;23;20020;-64
2022/11/07 08:14:50;;;;;;;0.55;0.20;;;;;;;2.26;80.84;100355.34;6207986;23;20157;-64
2022/11/07 08:17:16;;;;;;;0.10;0.10;;;;;;;2.28;80.78;100346.22;6217240;23;20043;-64
2022/11/07 08:19:42;;;;;;;0.17;0.17;;;;;;;2.42;80.68;100345.19;6206017;23;20031;-64
2022/11/07 08:22:08;;;;;;;0.10;0.10;;;;;;;2.51;80.10;100351.19;6243906;23;20111;-64
2022/11/07 08:24:35;;;;;;;0.10;0.10;;;;;;;2.49;79.94;100350.56;6231832;23;20024;-64
2022/11/07 08:27:01;;;;;;;0.10;0.10;;;;;;;2.50;79.73;100344.97;6233381;23;20027;-64
2022/11/07 08:29:28;;;;;;;0.20;0.20;;;;;;;2.50;79.54;100347.66;6229202;23;20028;-64
2022/11/07 08:31:54;;;;;;;0.10;0.10;;;;;;;2.51;79.45;100351.19;6239996;23;20042;-64
2022/11/07 08:34:20;;;;;;;0.10;0.10;;;;;;;2.43;79.44;100344.16;6229231;23;20051;-65
2022/11/07 08:36:46;;;;;;;0.10;0.10;;;;;;;2.41;79.64;100340.78;6232708;23;20016;-64
2022/11/07 08:39:12;;;;;;;0.10;0.10;;;;;;;2.40;79.86;100348.06;6242854;23;20047;-65
2022/11/07 08:41:40;;;;;;;0.10;0.10;;;;;;;2.48;79.64;100348.91;6244640;23;20016;-64
2022/11/07 08:44:07;;;;;;;0.10;0.10;;;;;;;2.47;79.83;100345.38;6248030;23;20024;-65
2022/11/07 08:46:33;;;;;;;1.52;0.20;;;;;;;2.52;79.54;100347.47;6233306;23;20042;-64
2022/11/07 08:48:59;;;;;;;0.10;0.10;;;;;;;2.47;79.36;100349.94;6243392;23;20499;-65
2022/11/07 08:51:25;;;;;;;0.10;0.10;;;;;;;2.39;79.79;100359.06;6234188;23;20147;-66
2022/11/07 08:53:51;;;;;;;0.10;0.10;;;;;;;2.28;79.84;100355.13;6233062;23;20402;-66
2022/11/07 08:56:17;;;;;;;0.10;0.10;;;;;;;2.22;80.12;100340.59;6238510;23;20020;-64
2022/11/07 08:58:44;;;;;;;0.10;0.10;;;;;;;2.24;80.10;100343.91;6245298;23;20019;-64
2022/11/07 09:01:10;;;;;;;0.10;0.10;;;;;;;2.32;80.25;100326.69;6209449;23;20054;-64
2022/11/07 09:03:37;;;;;;;0.10;0.10;;;;;;;2.30;79.88;100342.25;6210884;23;20020;-64
2022/11/07 09:06:04;;;;;;;0.10;0.10;;;;;;;2.45;79.67;100343.91;6243971;23;20020;-65
2022/11/07 09:08:30;;;;;;;0.10;0.10;;;;;;;2.49;79.53;100347.84;6208523;23;20024;-64
2022/11/07 09:11:00;;;;;;;0.10;0.10;;;;;;;2.55;79.34;100339.75;6245798;23;20016;-66
2022/11/07 09:13:27;;;;;;;0.10;0.10;;;;;;;2.64;79.27;100337.66;6236920;23;20055;-66
2022/11/07 09:15:58;;;;;;;0.10;0.10;;;;;;;2.72;78.94;100339.31;6250216;23;20020;-66
2022/11/07 09:18:24;;;;;;;0.20;0.17;;;;;;;2.65;78.72;100335.81;6235564;23;20023;-66
2022/11/07 09:20:50;;;;;;;0.10;0.10;;;;;;;2.66;79.02;100340.19;6207954;23;20027;-66
2022/11/07 09:23:16;;;;;;;0.10;0.10;;;;;;;2.66;78.84;100340.19;6244069;23;20070;-65
2022/11/07 09:25:42;;;;;;;0.10;0.10;;;;;;;2.59;79.16;100334.78;6233107;23;20024;-65
2022/11/07 09:28:09;;;;;;;0.10;0.10;;;;;;;2.60;79.25;100336.44;6231898;23;20802;-64
2022/11/07 09:30:35;;;;;;;0.10;0.10;;;;;;;2.61;79.49;100340.78;6234685;23;20116;-66
2022/11/07 09:33:03;;;;;;;0.10;0.10;;;;;;;2.64;79.48;100343.06;6232100;23;20024;-66
2022/11/07 09:35:29;;;;;;;0.32;0.10;;;;;;;2.62;79.28;100328.13;6215903;23;20020;-66
2022/11/07 09:37:55;;;;;;;0.10;0.10;;;;;;;2.64;79.50;100336.84;6244643;23;20371;-65
2022/11/07 09:40:28;;;;;;;0.10;0.10;;;;;;;2.61;79.36;100330.00;6241974;23;20496;-64
2022/11/07 09:43:22;;;;;;;0.10;0.10;;;;;;;2.54;79.61;100316.50;6233443;23;20494;-64
2022/11/07 09:45:53;;;;;;;0.10;0.10;;;;;;;2.61;79.46;100326.47;6236606;23;20043;-64
2022/11/07 09:48:25;;;;;;;0.10;0.10;;;;;;;2.59;79.35;100328.56;6244450;23;20082;-64
2022/11/07 09:50:51;;;;;;;0.10;0.10;;;;;;;2.59;79.85;100323.16;6207086;23;20024;-65
2022/11/07 09:53:30;;;;;;;0.10;0.10;;;;;;;2.60;79.71;100319.41;6242785;23;20047;-66
2022/11/07 09:55:59;;;;;;;0.10;0.10;;;;;;;2.57;79.84;100317.13;6232030;23;20082;-66
2022/11/07 09:58:30;;;;;;;0.10;0.10;;;;;;;2.59;79.99;100323.16;6205569;23;20401;-67
2022/11/07 10:01:00;;;;;;;0.13;0.13;;;;;;;2.40;79.90;100286.00;6242650;23;20143;-67
2022/11/07 10:03:27;;;;;;;0.10;0.10;;;;;;;2.60;79.99;100312.13;6233204;23;20020;-67
2022/11/07 10:06:04;;;;;;;0.10;0.10;;;;;;;2.63;80.02;100319.81;6237179;23;20238;-67
2022/11/07 10:08:39;;;;;;;0.10;0.10;;;;;;;2.65;79.98;100319.63;6206961;23;20118;-67
2022/11/07 10:11:10;;;;;;;0.22;0.20;;;;;;;2.67;80.15;100320.22;6235006;23;20300;-67
2022/11/07 10:13:58;;;;;;;0.10;0.10;;;;;;;2.66;80.08;100316.72;6203247;23;20016;-67
2022/11/07 10:16:37;;;;;;;0.10;0.10;;;;;;;2.62;80.25;100320.84;6231848;23;20132;-66
2022/11/07 10:19:19;;;;;;;0.10;0.10;;;;;;;2.56;80.36;100316.31;6183042;23;20058;-66
2022/11/07 10:21:56;;;;;;;0.10;0.10;;;;;;;2.55;80.77;100310.06;6232944;23;20074;-66
2022/11/07 10:24:38;;;;;;;0.10;0.10;;;;;;;2.55;80.52;100312.75;6232699;23;20054;-66
2022/11/07 10:27:07;;;;;;;0.10;0.10;;;;;;;2.59;80.48;100323.16;6233764;23;20035;-66
2022/11/07 10:29:40;;;;;;;0.10;0.10;;;;;;;2.51;80.77;100316.91;6232915;23;20024;-65
2022/11/07 10:32:17;;;;;;;0.10;0.10;;;;;;;2.49;80.96;100312.75;6214594;23;20024;-66
2022/11/07 10:34:50;;;;;;;0.10;0.10;;;;;;;2.49;80.99;100310.06;6231446;23;20020;-66
2022/11/07 10:37:17;;;;;;;0.10;0.10;;;;;;;2.55;81.12;100311.94;6232547;23;20051;-64
2022/11/07 10:39:42;;;;;;;0.10;0.10;;;;;;;2.59;80.93;100306.97;6242591;23;20424;-64
2022/11/07 10:42:12;;;;;;;0.10;0.10;;;;;;;2.55;80.78;100306.53;6209023;23;20016;-64
2022/11/07 10:44:41;;;;;;;0.10;0.10;;;;;;;2.40;81.00;100285.16;6245449;23;20020;-66
2022/11/07 10:47:14;;;;;;;0.10;0.10;;;;;;;2.51;81.19;100297.22;6233233;23;20024;-66
2022/11/07 10:49:40;;;;;;;0.10;0.10;;;;;;;2.48;81.05;100292.22;6204974;23;20028;-66
2022/11/07 10:52:18;;;;;;;0.10;0.10;;;;;;;2.50;81.26;100300.94;6232188;23;20522;-66
2022/11/07 10:54:45;;;;;;;0.10;0.10;;;;;;;2.50;81.18;100301.75;6233342;23;20396;-66
2022/11/07 10:57:15;;;;;;;0.10;0.10;;;;;;;2.50;81.06;100295.56;6236719;23;20019;-66
2022/11/07 10:59:53;;;;;;;0.10;0.10;;;;;;;2.53;81.26;100295.94;6237071;23;20044;-64
2022/11/07 11:02:21;;;;;;;0.10;0.10;;;;;;;2.55;80.80;100291.16;6246237;23;20028;-64
2022/11/07 11:04:49;;;;;;;0.10;0.10;;;;;;;2.60;80.97;100297.81;6221102;23;20016;-65
2022/11/07 11:07:16;;;;;;;0.10;0.10;;;;;;;2.59;80.58;100301.56;6237267;23;20020;-64
2022/11/07 11:09:49;;;;;;;0.10;0.10;;;;;;;2.53;80.86;100297.81;6234797;23;20054;-64
2022/11/07 11:12:22;;;;;;;0.10;0.10;;;;;;;2.47;81.12;100302.19;6234953;23;20430;-66
2022/11/07 11:14:48;;;;;;;0.10;0.10;;;;;;;2.41;81.21;100303.84;6212424;23;20055;-64
2022/11/07 11:17:23;;;;;;;0.10;0.10;;;;;;;2.40;81.36;100310.28;6237948;23;20044;-64
2022/11/07 11:19:51;;;;;;;0.10;0.10;;;;;;;2.41;81.54;100303.84;6234837;23;20020;-65
2022/11/07 11:22:22;;;;;;;0.10;0.10;;;;;;;2.35;81.41;100299.28;6211313;23;20024;-65
2022/11/07 11:24:58;;;;;;;0.10;0.10;;;;;;;2.34;81.37;100294.94;6246412;23;20070;-65
2022/11/07 11:27:28;;;;;;;0.10;0.10;;;;;;;2.31;81.54;100302.63;6207909;23;20355;-65
2022/11/07 11:29:59;;;;;;;0.10;0.10;;;;;;;2.32;81.50;100299.69;6210828;23;20480;-65
2022/11/07 11:32:30;;;;;;;0.10;0.10;;;;;;;2.32;81.43;100302.38;6236227;23;20027;-65
2022/11/07 11:35:10;;;;;;;0.10;0.10;;;;;;;2.29;81.81;100310.09;6236992;23;20373;-64
2022/11/07 11:37:42;;;;;;;0.10;0.10;;;;;;;2.28;81.70;100309.25;6247589;23;20452;-64
2022/11/07 11:40:15;;;;;;;0.10;0.10;;;;;;;2.32;81.71;100306.97;6219427;23;20099;-65
2022/11/07 11:42:53;;;;;;;0.15;0.10;;;;;;;2.34;81.92;100294.94;6188781;23;20106;-65
2022/11/07 11:45:28;;;;;;;0.10;0.10;;;;;;;2.36;81.69;100297.41;6248682;23;20390;-67
2022/11/07 11:47:59;;;;;;;0.10;0.10;;;;;;;2.35;81.70;100287.66;6233246;23;20123;-67